NO-0041 weather

Spydeberg Airstrip
Spydeberg, Østfold, Norway

Public forecast

Using degrees Celsius for public forecast. Weather courtesy of forecast.io.

Closest aviation weather report (METAR) to Spydeberg Airstrip

Closest report is Moss Airport, Rygge, 19.9 nm (36.9 km) SSW. Retrieved 2020/05/30 07:20 UTC (29 minutes ago):

ENRY 300720Z AUTO 02007KT 340V060 9999NDV NCD 17/05 Q1032

Closest aviation forecast (TAF) to Spydeberg Airstrip

Closest forecast is Moss Airport, Rygge, 19.9 nm (36.9 km) SSW. Retrieved 2020/05/30 06:03 UTC (2 hours ago):

TAF TAF ENRY 300500Z 3006/3106 04008KT CAVOK